createdAt,value
2018-06-15T00:04:29.131Z,98.40
2018-06-15T00:09:22.808Z,98.40
2018-06-15T00:14:16.040Z,98.50
2018-06-15T00:19:09.344Z,98.40
2018-06-15T00:24:02.579Z,98.40
2018-06-15T00:28:55.796Z,98.30
2018-06-15T00:33:49.040Z,98.40
2018-06-15T00:38:42.274Z,98.40
2018-06-15T00:43:35.520Z,98.40
2018-06-15T00:48:28.848Z,98.40
2018-06-15T00:53:22.081Z,98.60
2018-06-15T00:58:15.340Z,98.70
2018-06-15T01:03:08.643Z,98.60
2018-06-15T01:08:01.905Z,98.90
2018-06-15T01:12:55.133Z,98.90
2018-06-15T01:17:48.441Z,98.90
2018-06-15T01:22:41.747Z,98.90
2018-06-15T01:27:35.046Z,98.90
2018-06-15T01:32:28.416Z,99.00
2018-06-15T01:37:21.664Z,99.00
2018-06-15T01:42:14.998Z,99.00
2018-06-15T01:47:08.989Z,98.70
2018-06-15T01:52:02.210Z,99.00
2018-06-15T01:56:55.496Z,98.80
2018-06-15T02:01:48.813Z,99.20
2018-06-15T02:06:42.111Z,99.00
2018-06-15T02:11:35.360Z,99.40
2018-06-15T02:16:28.734Z,99.50
2018-06-15T02:21:22.018Z,99.60
2018-06-15T02:26:15.261Z,99.30
2018-06-15T02:31:08.543Z,99.50
2018-06-15T02:36:01.836Z,99.50
2018-06-15T02:40:55.087Z,99.30
2018-06-15T02:45:48.385Z,99.30
2018-06-15T02:50:41.676Z,99.30
2018-06-15T02:55:35.003Z,99.20
2018-06-15T03:00:28.274Z,99.10
2018-06-15T03:05:21.801Z,99.00
2018-06-15T03:10:15.142Z,99.10
2018-06-15T03:15:08.420Z,99.10
2018-06-15T03:20:01.685Z,99.10
2018-06-15T03:24:54.917Z,98.90
2018-06-15T03:29:48.175Z,99.00
2018-06-15T03:34:41.403Z,99.10
2018-06-15T03:39:34.768Z,99.20
2018-06-15T03:44:28.023Z,99.30
2018-06-15T03:49:21.259Z,99.10
2018-06-15T03:54:14.543Z,99.10
2018-06-15T03:59:07.783Z,99.10
2018-06-15T04:04:01.060Z,99.10
2018-06-15T04:08:54.310Z,99.20
2018-06-15T04:13:47.582Z,99.10
2018-06-15T04:18:40.967Z,99.10
2018-06-15T04:23:34.238Z,98.90
2018-06-15T04:28:27.461Z,98.70
2018-06-15T04:33:20.719Z,98.70
2018-06-15T04:38:13.988Z,98.40
2018-06-15T04:43:07.254Z,98.50
2018-06-15T04:48:00.502Z,97.70
2018-06-15T04:52:53.777Z,97.50
2018-06-15T04:57:47.168Z,96.80
2018-06-15T05:02:40.423Z,96.60
2018-06-15T05:07:33.681Z,96.10
2018-06-15T05:12:26.926Z,95.50
2018-06-15T05:17:20.298Z,95.30
2018-06-15T05:22:13.504Z,94.40
2018-06-15T05:27:06.774Z,93.70
2018-06-15T05:32:00.016Z,93.60
2018-06-15T05:36:53.297Z,93.40
2018-06-15T05:41:46.538Z,93.00
2018-06-15T05:46:39.776Z,93.10
2018-06-15T05:51:33.099Z,93.80
2018-06-15T05:56:27.124Z,92.90
2018-06-15T06:01:20.437Z,92.60
2018-06-15T06:06:14.035Z,91.60
2018-06-15T06:11:07.322Z,91.20
2018-06-15T06:16:00.656Z,91.20
2018-06-15T06:20:53.922Z,91.00
2018-06-15T06:25:47.155Z,90.20
2018-06-15T06:30:40.416Z,89.70
2018-06-15T06:35:33.744Z,85.20
2018-06-15T06:40:27.049Z,77.70
2018-06-15T06:45:20.343Z,75.90
2018-06-15T06:50:13.616Z,69.70
2018-06-15T06:55:06.884Z,71.00
2018-06-15T07:00:00.228Z,72.70
2018-06-15T07:04:53.769Z,73.10
2018-06-15T07:09:47.052Z,70.90
2018-06-15T07:14:40.706Z,72.10
2018-06-15T07:19:34.067Z,71.30
2018-06-15T07:24:27.361Z,73.50
2018-06-15T07:29:20.615Z,74.00
2018-06-15T07:34:13.872Z,70.60
2018-06-15T07:39:08.727Z,64.90
2018-06-15T07:44:02.015Z,68.30
2018-06-15T07:48:55.381Z,68.70
2018-06-15T07:53:48.662Z,68.20
2018-06-15T07:58:41.922Z,66.40
2018-06-15T08:03:35.277Z,65.10
2018-06-15T08:08:28.609Z,63.60
2018-06-15T08:13:21.847Z,60.80
2018-06-15T08:18:15.109Z,60.70
2018-06-15T08:23:08.356Z,61.40
2018-06-15T08:28:01.669Z,61.30
2018-06-15T08:32:54.980Z,57.10
2018-06-15T08:37:48.255Z,54.30
2018-06-15T08:42:41.547Z,51.20
2018-06-15T08:47:34.823Z,53.10
2018-06-15T08:52:28.123Z,50.00
2018-06-15T08:57:21.350Z,46.00
2018-06-15T09:02:14.581Z,47.90
2018-06-15T09:07:07.799Z,51.00
2018-06-15T09:12:01.049Z,54.70
2018-06-15T09:16:54.320Z,61.80
2018-06-15T09:21:47.602Z,68.20
2018-06-15T09:26:40.874Z,67.30
2018-06-15T09:31:34.147Z,65.60
2018-06-15T09:36:27.370Z,59.70
2018-06-15T09:41:20.616Z,55.50
2018-06-15T09:46:13.950Z,51.50
2018-06-15T09:51:07.223Z,54.50
2018-06-15T09:56:00.520Z,56.70
2018-06-15T10:00:59.459Z,59.40
2018-06-15T10:05:52.693Z,62.40
2018-06-15T10:10:46.022Z,64.10
2018-06-15T10:15:39.285Z,59.10
2018-06-15T10:20:33.068Z,55.80
2018-06-15T10:25:27.123Z,54.30
2018-06-15T10:30:23.157Z,53.60
2018-06-15T10:35:16.840Z,55.80
2018-06-15T10:40:10.103Z,60.50
2018-06-15T10:45:03.413Z,62.20
2018-06-15T10:49:56.710Z,59.70
2018-06-15T10:54:49.971Z,63.30
2018-06-15T10:59:43.228Z,60.40
2018-06-15T11:04:36.535Z,58.80
2018-06-15T11:09:29.906Z,60.70
2018-06-15T11:14:23.164Z,58.00
2018-06-15T11:19:16.425Z,57.50
2018-06-15T11:24:09.690Z,59.40
2018-06-15T11:29:02.959Z,61.20
2018-06-15T11:33:56.241Z,58.80
2018-06-15T11:38:49.520Z,57.40
2018-06-15T11:43:42.835Z,58.80
2018-06-15T11:48:36.084Z,58.50
2018-06-15T11:53:29.332Z,57.50
2018-06-15T11:58:22.596Z,57.80
2018-06-15T12:03:15.930Z,55.50
2018-06-15T12:08:09.183Z,57.10
2018-06-15T12:13:02.441Z,56.20
2018-06-15T12:17:55.710Z,56.30
2018-06-15T12:22:48.945Z,53.00
2018-06-15T12:27:42.205Z,53.00
2018-06-15T12:32:35.463Z,54.80
2018-06-15T12:37:28.861Z,55.50
2018-06-15T12:42:22.133Z,54.70
2018-06-15T12:47:15.356Z,56.30
2018-06-15T12:52:08.624Z,55.40
2018-06-15T12:57:01.966Z,56.40
2018-06-15T13:01:55.204Z,56.40
2018-06-15T13:06:48.471Z,58.50
2018-06-15T13:11:41.756Z,59.20
2018-06-15T13:16:35.255Z,58.40
2018-06-15T13:21:28.504Z,58.50
2018-06-15T13:26:21.901Z,58.10
2018-06-15T13:31:15.148Z,57.40
2018-06-15T13:36:08.518Z,57.20
2018-06-15T13:41:01.780Z,54.50
2018-06-15T13:45:55.048Z,53.90
2018-06-15T13:50:48.891Z,56.20
2018-06-15T13:55:42.142Z,56.30
2018-06-15T14:00:35.397Z,55.60
2018-06-15T14:05:28.716Z,53.80
2018-06-15T14:10:22.012Z,54.20
2018-06-15T14:15:15.405Z,56.40
2018-06-15T14:20:08.661Z,56.50
2018-06-15T14:25:01.991Z,57.20
2018-06-15T14:29:55.236Z,57.20
2018-06-15T14:34:48.487Z,54.40
2018-06-15T14:39:41.744Z,53.00
2018-06-15T14:44:35.036Z,53.60
2018-06-15T14:49:28.954Z,51.90
2018-06-15T14:54:22.200Z,52.50
2018-06-15T14:59:15.442Z,50.90
2018-06-15T15:04:08.688Z,50.30
2018-06-15T15:09:02.023Z,51.70
2018-06-15T15:13:58.770Z,51.20
2018-06-15T15:18:55.840Z,50.80
2018-06-15T15:23:52.758Z,49.80
2018-06-15T15:28:49.717Z,49.20
2018-06-15T15:33:47.197Z,47.70
2018-06-15T15:38:45.478Z,48.10
2018-06-15T15:43:41.778Z,48.70
2018-06-15T15:48:35.227Z,50.10
2018-06-15T15:53:32.682Z,50.00
2018-06-15T15:58:26.140Z,50.20
2018-06-15T16:03:19.463Z,50.00
2018-06-15T16:08:16.425Z,51.40
2018-06-15T16:13:13.848Z,52.20
2018-06-15T16:18:11.045Z,53.30
2018-06-15T16:23:04.772Z,53.70
2018-06-15T16:28:02.181Z,54.70
2018-06-15T16:32:59.288Z,54.20
2018-06-15T16:37:56.675Z,54.30
2018-06-15T16:42:50.055Z,55.20
2018-06-15T16:47:47.189Z,55.70
2018-06-15T16:52:40.509Z,56.00
2018-06-15T16:57:39.397Z,55.50
2018-06-15T17:02:32.716Z,55.60
2018-06-15T17:07:29.936Z,55.80
2018-06-15T17:12:28.032Z,55.80
2018-06-15T17:17:25.376Z,56.20
2018-06-15T17:22:22.806Z,55.30
2018-06-15T17:27:16.126Z,56.10
2018-06-15T17:32:09.379Z,55.20
2018-06-15T17:37:03.573Z,55.30
2018-06-15T17:41:57.090Z,55.80
2018-06-15T17:46:50.372Z,55.30
2018-06-15T17:51:43.618Z,55.50
2018-06-15T17:56:36.981Z,56.20
2018-06-15T18:01:30.526Z,56.60
2018-06-15T18:06:23.780Z,57.20
2018-06-15T18:11:17.098Z,57.60
2018-06-15T18:16:10.354Z,57.60
2018-06-15T18:21:03.814Z,57.60
2018-06-15T18:25:57.137Z,58.40
2018-06-15T18:30:50.375Z,58.60
2018-06-15T18:35:43.677Z,59.60
2018-06-15T18:40:36.952Z,60.50
2018-06-15T18:45:30.251Z,60.10
2018-06-15T18:50:23.552Z,60.10
2018-06-15T18:55:16.813Z,60.40
2018-06-15T19:00:10.055Z,59.30
2018-06-15T19:05:03.398Z,59.20
2018-06-15T19:09:56.650Z,59.70
2018-06-15T19:14:49.936Z,59.30
2018-06-15T19:19:43.231Z,59.90
2018-06-15T19:24:36.493Z,60.60
2018-06-15T19:29:29.749Z,60.90
2018-06-15T19:34:29.576Z,60.60
2018-06-15T19:39:22.807Z,60.70
2018-06-15T19:44:16.071Z,60.60
2018-06-15T19:49:09.348Z,61.20
2018-06-15T19:54:03.418Z,61.30
2018-06-15T19:58:56.725Z,61.50
2018-06-15T20:03:49.930Z,62.20
2018-06-15T20:08:43.168Z,62.00
2018-06-15T20:13:40.386Z,62.70
2018-06-15T20:18:37.992Z,63.00
2018-06-15T20:23:34.896Z,63.70
2018-06-15T20:28:32.323Z,64.10
2018-06-15T20:33:25.647Z,64.80
2018-06-15T20:38:22.738Z,65.50
2018-06-15T20:43:16.201Z,66.00
2018-06-15T20:48:12.945Z,67.00
2018-06-15T20:53:09.899Z,67.60
2018-06-15T20:58:07.958Z,69.30
2018-06-15T21:03:01.526Z,70.70
2018-06-15T21:07:59.190Z,71.30
2018-06-15T21:12:52.473Z,72.60
2018-06-15T21:17:45.768Z,74.40
2018-06-15T21:22:39.035Z,76.10
2018-06-15T21:27:32.297Z,77.30
2018-06-15T21:32:25.518Z,77.20
2018-06-15T21:37:18.783Z,77.50
2018-06-15T21:42:12.017Z,78.20
2018-06-15T21:47:05.432Z,79.00
2018-06-15T21:51:58.721Z,80.70
2018-06-15T21:56:51.958Z,82.00
2018-06-15T22:01:45.197Z,83.20
2018-06-15T22:06:38.497Z,84.10
2018-06-15T22:11:31.877Z,84.90
2018-06-15T22:16:25.355Z,85.70
2018-06-15T22:21:18.682Z,86.00
2018-06-15T22:26:12.071Z,86.30
2018-06-15T22:31:05.518Z,85.40
2018-06-15T22:35:58.910Z,86.00
2018-06-15T22:40:52.240Z,85.40
2018-06-15T22:45:45.526Z,84.10
2018-06-15T22:50:38.785Z,83.10
2018-06-15T22:55:32.048Z,81.90
2018-06-15T23:00:25.947Z,81.60
2018-06-15T23:05:19.234Z,81.20
2018-06-15T23:10:12.502Z,81.70
2018-06-15T23:15:06.367Z,82.20
2018-06-15T23:19:59.646Z,83.10
2018-06-15T23:24:52.934Z,83.60
2018-06-15T23:29:46.375Z,83.20
2018-06-15T23:34:39.638Z,84.10
2018-06-15T23:39:32.930Z,84.40
2018-06-15T23:44:26.179Z,85.60
2018-06-15T23:49:19.446Z,85.50
2018-06-15T23:54:12.698Z,85.90
2018-06-15T23:59:06.363Z,87.00
